sensor_id;sensor_type;location;lat;lon;timestamp;P1;durP1;ratioP1;P2;durP2;ratioP2
11191;SDS011;5652;48.406;10.820;2024-03-02T00:01:05;73.93;;;29.77;;
11191;SDS011;5652;48.406;10.820;2024-03-02T00:03:32;62.15;;;28.77;;
11191;SDS011;5652;48.406;10.820;2024-03-02T00:05:59;63.05;;;28.05;;
11191;SDS011;5652;48.406;10.820;2024-03-02T00:08:28;62.90;;;30.93;;
11191;SDS011;5652;48.406;10.820;2024-03-02T00:10:56;54.45;;;30.40;;
11191;SDS011;5652;48.406;10.820;2024-03-02T00:13:24;54.20;;;31.97;;
11191;SDS011;5652;48.406;10.820;2024-03-02T00:15:51;52.22;;;31.52;;
11191;SDS011;5652;48.406;10.820;2024-03-02T00:18:19;49.22;;;31.35;;
11191;SDS011;5652;48.406;10.820;2024-03-02T00:20:47;53.65;;;31.77;;
11191;SDS011;5652;48.406;10.820;2024-03-02T00:23:14;53.97;;;31.55;;
11191;SDS011;5652;48.406;10.820;2024-03-02T00:25:44;55.75;;;31.80;;
11191;SDS011;5652;48.406;10.820;2024-03-02T00:28:13;68.40;;;32.38;;
11191;SDS011;5652;48.406;10.820;2024-03-02T00:33:26;61.88;;;32.58;;
11191;SDS011;5652;48.406;10.820;2024-03-02T00:35:54;54.08;;;31.30;;
11191;SDS011;5652;48.406;10.820;2024-03-02T00:38:21;55.30;;;31.67;;
11191;SDS011;5652;48.406;10.820;2024-03-02T00:40:50;55.20;;;31.85;;
11191;SDS011;5652;48.406;10.820;2024-03-02T00:43:38;51.88;;;31.92;;
11191;SDS011;5652;48.406;10.820;2024-03-02T00:46:06;50.58;;;31.40;;
11191;SDS011;5652;48.406;10.820;2024-03-02T00:48:33;52.70;;;31.38;;
11191;SDS011;5652;48.406;10.820;2024-03-02T00:51:02;50.47;;;30.77;;
11191;SDS011;5652;48.406;10.820;2024-03-02T00:53:29;51.53;;;29.92;;
11191;SDS011;5652;48.406;10.820;2024-03-02T00:55:58;49.17;;;30.05;;
11191;SDS011;5652;48.406;10.820;2024-03-02T00:58:25;46.22;;;29.48;;
11191;SDS011;5652;48.406;10.820;2024-03-02T01:00:52;48.03;;;29.25;;
11191;SDS011;5652;48.406;10.820;2024-03-02T01:03:20;45.27;;;28.50;;
11191;SDS011;5652;48.406;10.820;2024-03-02T01:05:47;48.03;;;29.65;;
11191;SDS011;5652;48.406;10.820;2024-03-02T01:08:14;50.33;;;30.27;;
11191;SDS011;5652;48.406;10.820;2024-03-02T01:10:41;48.33;;;29.73;;
11191;SDS011;5652;48.406;10.820;2024-03-02T01:13:10;48.90;;;29.95;;
11191;SDS011;5652;48.406;10.820;2024-03-02T01:15:37;45.17;;;29.33;;
11191;SDS011;5652;48.406;10.820;2024-03-02T01:18:04;45.50;;;29.80;;
11191;SDS011;5652;48.406;10.820;2024-03-02T01:20:31;48.45;;;29.85;;
11191;SDS011;5652;48.406;10.820;2024-03-02T01:22:58;44.30;;;29.50;;
11191;SDS011;5652;48.406;10.820;2024-03-02T01:25:25;44.10;;;28.38;;
11191;SDS011;5652;48.406;10.820;2024-03-02T01:27:52;44.90;;;29.17;;
11191;SDS011;5652;48.406;10.820;2024-03-02T01:30:21;44.97;;;28.52;;
11191;SDS011;5652;48.406;10.820;2024-03-02T01:32:48;44.25;;;28.60;;
11191;SDS011;5652;48.406;10.820;2024-03-02T01:35:15;42.92;;;27.52;;
11191;SDS011;5652;48.406;10.820;2024-03-02T01:37:42;43.15;;;27.33;;
11191;SDS011;5652;48.406;10.820;2024-03-02T01:40:10;40.88;;;26.98;;
11191;SDS011;5652;48.406;10.820;2024-03-02T01:42:37;42.45;;;28.67;;
11191;SDS011;5652;48.406;10.820;2024-03-02T01:45:05;40.78;;;26.88;;
11191;SDS011;5652;48.406;10.820;2024-03-02T01:47:33;43.90;;;27.60;;
11191;SDS011;5652;48.406;10.820;2024-03-02T01:50:01;39.47;;;27.02;;
11191;SDS011;5652;48.406;10.820;2024-03-02T01:52:28;38.95;;;27.23;;
11191;SDS011;5652;48.406;10.820;2024-03-02T01:54:55;39.43;;;26.67;;
11191;SDS011;5652;48.406;10.820;2024-03-02T01:57:22;38.70;;;26.70;;
11191;SDS011;5652;48.406;10.820;2024-03-02T01:59:49;41.53;;;26.27;;
11191;SDS011;5652;48.406;10.820;2024-03-02T02:02:17;36.92;;;25.67;;
11191;SDS011;5652;48.406;10.820;2024-03-02T02:04:46;39.17;;;26.50;;
11191;SDS011;5652;48.406;10.820;2024-03-02T02:07:13;34.87;;;25.33;;
11191;SDS011;5652;48.406;10.820;2024-03-02T02:09:41;35.17;;;25.15;;
11191;SDS011;5652;48.406;10.820;2024-03-02T02:12:08;37.67;;;25.90;;
11191;SDS011;5652;48.406;10.820;2024-03-02T02:14:36;36.42;;;24.75;;
11191;SDS011;5652;48.406;10.820;2024-03-02T02:17:04;32.33;;;23.85;;
11191;SDS011;5652;48.406;10.820;2024-03-02T02:19:32;33.50;;;24.27;;
11191;SDS011;5652;48.406;10.820;2024-03-02T02:22:00;36.45;;;24.70;;
11191;SDS011;5652;48.406;10.820;2024-03-02T02:24:27;34.73;;;23.93;;
11191;SDS011;5652;48.406;10.820;2024-03-02T02:26:54;34.15;;;24.48;;
11191;SDS011;5652;48.406;10.820;2024-03-02T02:29:21;35.95;;;24.60;;
11191;SDS011;5652;48.406;10.820;2024-03-02T02:31:48;35.47;;;24.25;;
11191;SDS011;5652;48.406;10.820;2024-03-02T02:34:15;35.15;;;24.55;;
11191;SDS011;5652;48.406;10.820;2024-03-02T02:36:43;35.13;;;24.02;;
11191;SDS011;5652;48.406;10.820;2024-03-02T02:39:12;34.30;;;23.60;;
11191;SDS011;5652;48.406;10.820;2024-03-02T02:41:40;32.70;;;22.98;;
11191;SDS011;5652;48.406;10.820;2024-03-02T02:44:07;32.55;;;22.55;;
11191;SDS011;5652;48.406;10.820;2024-03-02T02:46:36;31.63;;;22.93;;
11191;SDS011;5652;48.406;10.820;2024-03-02T02:49:04;36.47;;;24.42;;
11191;SDS011;5652;48.406;10.820;2024-03-02T02:51:31;34.45;;;22.67;;
11191;SDS011;5652;48.406;10.820;2024-03-02T02:53:58;33.78;;;23.42;;
11191;SDS011;5652;48.406;10.820;2024-03-02T02:56:26;35.40;;;24.92;;
11191;SDS011;5652;48.406;10.820;2024-03-02T02:58:54;32.05;;;23.42;;
11191;SDS011;5652;48.406;10.820;2024-03-02T03:01:21;36.13;;;25.15;;
11191;SDS011;5652;48.406;10.820;2024-03-02T03:03:48;33.87;;;23.60;;
11191;SDS011;5652;48.406;10.820;2024-03-02T03:09:13;33.80;;;23.17;;
11191;SDS011;5652;48.406;10.820;2024-03-02T03:11:41;31.48;;;22.77;;
11191;SDS011;5652;48.406;10.820;2024-03-02T03:14:09;33.20;;;23.63;;
11191;SDS011;5652;48.406;10.820;2024-03-02T03:16:36;32.85;;;23.17;;
11191;SDS011;5652;48.406;10.820;2024-03-02T03:19:03;34.30;;;24.30;;
11191;SDS011;5652;48.406;10.820;2024-03-02T03:21:30;37.65;;;26.33;;
11191;SDS011;5652;48.406;10.820;2024-03-02T03:23:57;39.72;;;29.15;;
11191;SDS011;5652;48.406;10.820;2024-03-02T03:26:24;40.08;;;28.55;;
11191;SDS011;5652;48.406;10.820;2024-03-02T03:28:52;47.80;;;32.42;;
11191;SDS011;5652;48.406;10.820;2024-03-02T03:31:20;39.42;;;26.15;;
11191;SDS011;5652;48.406;10.820;2024-03-02T03:33:47;40.67;;;26.50;;
11191;SDS011;5652;48.406;10.820;2024-03-02T03:36:14;37.38;;;25.75;;
11191;SDS011;5652;48.406;10.820;2024-03-02T03:38:41;40.80;;;25.30;;
11191;SDS011;5652;48.406;10.820;2024-03-02T03:41:08;38.90;;;24.70;;
11191;SDS011;5652;48.406;10.820;2024-03-02T03:43:35;43.80;;;25.20;;
11191;SDS011;5652;48.406;10.820;2024-03-02T03:46:04;41.63;;;23.92;;
11191;SDS011;5652;48.406;10.820;2024-03-02T03:48:31;39.22;;;23.35;;
11191;SDS011;5652;48.406;10.820;2024-03-02T03:50:58;39.78;;;23.58;;
11191;SDS011;5652;48.406;10.820;2024-03-02T03:53:25;38.30;;;24.40;;
11191;SDS011;5652;48.406;10.820;2024-03-02T03:55:52;37.30;;;24.05;;
11191;SDS011;5652;48.406;10.820;2024-03-02T03:58:19;36.45;;;23.27;;
11191;SDS011;5652;48.406;10.820;2024-03-02T04:00:46;37.28;;;24.65;;
11191;SDS011;5652;48.406;10.820;2024-03-02T04:03:15;37.53;;;24.63;;
11191;SDS011;5652;48.406;10.820;2024-03-02T04:05:42;41.53;;;26.50;;
11191;SDS011;5652;48.406;10.820;2024-03-02T04:08:09;37.93;;;25.17;;
11191;SDS011;5652;48.406;10.820;2024-03-02T04:10:36;35.17;;;23.77;;
11191;SDS011;5652;48.406;10.820;2024-03-02T04:13:05;35.05;;;24.00;;
11191;SDS011;5652;48.406;10.820;2024-03-02T04:18:37;35.40;;;23.83;;
11191;SDS011;5652;48.406;10.820;2024-03-02T04:21:04;38.08;;;23.35;;
11191;SDS011;5652;48.406;10.820;2024-03-02T04:23:31;35.65;;;23.35;;
11191;SDS011;5652;48.406;10.820;2024-03-02T04:25:58;52.97;;;25.08;;
11191;SDS011;5652;48.406;10.820;2024-03-02T04:28:25;49.25;;;25.92;;
11191;SDS011;5652;48.406;10.820;2024-03-02T04:30:52;66.55;;;25.58;;
11191;SDS011;5652;48.406;10.820;2024-03-02T04:33:20;36.85;;;23.85;;
11191;SDS011;5652;48.406;10.820;2024-03-02T04:35:48;36.53;;;22.80;;
11191;SDS011;5652;48.406;10.820;2024-03-02T04:38:15;36.42;;;23.35;;
11191;SDS011;5652;48.406;10.820;2024-03-02T04:40:42;34.08;;;23.00;;
11191;SDS011;5652;48.406;10.820;2024-03-02T04:43:09;37.03;;;23.38;;
11191;SDS011;5652;48.406;10.820;2024-03-02T04:45:40;86.43;;;26.63;;
11191;SDS011;5652;48.406;10.820;2024-03-02T04:48:07;232.15;;;33.22;;
11191;SDS011;5652;48.406;10.820;2024-03-02T04:50:34;79.65;;;25.27;;
11191;SDS011;5652;48.406;10.820;2024-03-02T04:53:03;50.22;;;25.35;;
11191;SDS011;5652;48.406;10.820;2024-03-02T04:55:30;44.67;;;25.15;;
11191;SDS011;5652;48.406;10.820;2024-03-02T04:58:15;43.60;;;24.92;;
11191;SDS011;5652;48.406;10.820;2024-03-02T05:00:42;50.65;;;26.02;;
11191;SDS011;5652;48.406;10.820;2024-03-02T05:03:11;54.05;;;27.27;;
11191;SDS011;5652;48.406;10.820;2024-03-02T05:05:38;52.92;;;26.75;;
11191;SDS011;5652;48.406;10.820;2024-03-02T05:08:07;50.57;;;27.07;;
11191;SDS011;5652;48.406;10.820;2024-03-02T05:10:37;46.90;;;27.65;;
11191;SDS011;5652;48.406;10.820;2024-03-02T05:13:04;49.92;;;28.00;;
11191;SDS011;5652;48.406;10.820;2024-03-02T05:15:31;51.00;;;28.27;;
11191;SDS011;5652;48.406;10.820;2024-03-02T05:17:58;51.05;;;29.10;;
11191;SDS011;5652;48.406;10.820;2024-03-02T05:20:27;54.25;;;29.75;;
11191;SDS011;5652;48.406;10.820;2024-03-02T05:22:55;50.15;;;29.25;;
11191;SDS011;5652;48.406;10.820;2024-03-02T05:25:23;52.60;;;28.17;;
11191;SDS011;5652;48.406;10.820;2024-03-02T05:27:50;46.58;;;27.65;;
11191;SDS011;5652;48.406;10.820;2024-03-02T05:30:17;664.00;;;60.22;;
11191;SDS011;5652;48.406;10.820;2024-03-02T05:32:44;733.05;;;47.22;;
11191;SDS011;5652;48.406;10.820;2024-03-02T05:35:11;63.85;;;30.13;;
11191;SDS011;5652;48.406;10.820;2024-03-02T05:37:38;59.45;;;32.13;;
11191;SDS011;5652;48.406;10.820;2024-03-02T05:40:06;58.83;;;30.17;;
11191;SDS011;5652;48.406;10.820;2024-03-02T05:42:35;50.92;;;29.48;;
11191;SDS011;5652;48.406;10.820;2024-03-02T05:45:02;46.53;;;29.37;;
11191;SDS011;5652;48.406;10.820;2024-03-02T05:47:29;677.42;;;52.30;;
11191;SDS011;5652;48.406;10.820;2024-03-02T05:49:57;326.20;;;33.78;;
11191;SDS011;5652;48.406;10.820;2024-03-02T05:52:24;422.63;;;40.15;;
11191;SDS011;5652;48.406;10.820;2024-03-02T05:54:51;566.00;;;47.35;;
11191;SDS011;5652;48.406;10.820;2024-03-02T05:57:18;463.42;;;44.15;;
11191;SDS011;5652;48.406;10.820;2024-03-02T06:00:00;391.13;;;48.80;;
11191;SDS011;5652;48.406;10.820;2024-03-02T06:02:30;260.40;;;40.30;;
11191;SDS011;5652;48.406;10.820;2024-03-02T06:04:57;486.77;;;52.85;;
11191;SDS011;5652;48.406;10.820;2024-03-02T06:07:24;461.33;;;43.03;;
11191;SDS011;5652;48.406;10.820;2024-03-02T06:09:51;516.83;;;50.17;;
11191;SDS011;5652;48.406;10.820;2024-03-02T06:12:18;424.93;;;49.93;;
11191;SDS011;5652;48.406;10.820;2024-03-02T06:14:46;199.52;;;39.63;;
11191;SDS011;5652;48.406;10.820;2024-03-02T06:17:14;64.22;;;33.10;;
11191;SDS011;5652;48.406;10.820;2024-03-02T06:19:41;55.58;;;31.38;;
11191;SDS011;5652;48.406;10.820;2024-03-02T06:22:08;212.25;;;39.95;;
11191;SDS011;5652;48.406;10.820;2024-03-02T06:24:35;585.63;;;54.70;;
11191;SDS011;5652;48.406;10.820;2024-03-02T06:27:02;383.30;;;46.72;;
11191;SDS011;5652;48.406;10.820;2024-03-02T06:29:32;329.05;;;44.75;;
11191;SDS011;5652;48.406;10.820;2024-03-02T06:31:59;167.60;;;37.97;;
11191;SDS011;5652;48.406;10.820;2024-03-02T06:34:27;91.35;;;30.88;;
11191;SDS011;5652;48.406;10.820;2024-03-02T06:36:54;57.20;;;28.50;;
11191;SDS011;5652;48.406;10.820;2024-03-02T06:39:21;43.35;;;27.13;;
11191;SDS011;5652;48.406;10.820;2024-03-02T06:41:48;45.10;;;27.80;;
11191;SDS011;5652;48.406;10.820;2024-03-02T06:44:16;156.50;;;31.97;;
11191;SDS011;5652;48.406;10.820;2024-03-02T06:46:43;44.55;;;25.13;;
11191;SDS011;5652;48.406;10.820;2024-03-02T06:49:10;42.03;;;25.42;;
11191;SDS011;5652;48.406;10.820;2024-03-02T06:51:38;37.92;;;24.75;;
11191;SDS011;5652;48.406;10.820;2024-03-02T06:54:07;34.15;;;24.35;;
11191;SDS011;5652;48.406;10.820;2024-03-02T06:56:34;31.60;;;23.23;;
11191;SDS011;5652;48.406;10.820;2024-03-02T06:59:01;26.25;;;20.60;;
11191;SDS011;5652;48.406;10.820;2024-03-02T07:01:28;23.27;;;19.02;;
11191;SDS011;5652;48.406;10.820;2024-03-02T07:03:55;21.00;;;17.13;;
11191;SDS011;5652;48.406;10.820;2024-03-02T07:06:22;17.30;;;14.93;;
11191;SDS011;5652;48.406;10.820;2024-03-02T07:08:51;16.15;;;14.45;;
11191;SDS011;5652;48.406;10.820;2024-03-02T07:11:18;13.00;;;11.68;;
11191;SDS011;5652;48.406;10.820;2024-03-02T07:13:45;10.60;;;9.52;;
11191;SDS011;5652;48.406;10.820;2024-03-02T07:16:12;9.25;;;8.35;;
11191;SDS011;5652;48.406;10.820;2024-03-02T07:18:52;8.57;;;7.78;;
11191;SDS011;5652;48.406;10.820;2024-03-02T07:21:21;8.25;;;7.45;;
11191;SDS011;5652;48.406;10.820;2024-03-02T07:23:48;8.68;;;7.88;;
11191;SDS011;5652;48.406;10.820;2024-03-02T07:26:16;8.35;;;7.63;;
11191;SDS011;5652;48.406;10.820;2024-03-02T07:28:44;9.10;;;8.20;;
11191;SDS011;5652;48.406;10.820;2024-03-02T07:31:12;8.07;;;7.28;;
11191;SDS011;5652;48.406;10.820;2024-03-02T07:33:40;7.82;;;7.03;;
11191;SDS011;5652;48.406;10.820;2024-03-02T07:36:07;7.93;;;7.18;;
11191;SDS011;5652;48.406;10.820;2024-03-02T07:38:34;7.67;;;6.90;;
11191;SDS011;5652;48.406;10.820;2024-03-02T07:41:01;7.63;;;6.93;;
11191;SDS011;5652;48.406;10.820;2024-03-02T07:43:30;7.55;;;6.82;;
11191;SDS011;5652;48.406;10.820;2024-03-02T07:45:58;7.55;;;6.78;;
11191;SDS011;5652;48.406;10.820;2024-03-02T07:48:25;8.23;;;6.85;;
11191;SDS011;5652;48.406;10.820;2024-03-02T07:50:52;7.30;;;6.60;;
11191;SDS011;5652;48.406;10.820;2024-03-02T07:53:19;7.57;;;6.70;;
11191;SDS011;5652;48.406;10.820;2024-03-02T07:55:46;6.82;;;6.15;;
11191;SDS011;5652;48.406;10.820;2024-03-02T07:58:13;6.30;;;5.70;;
11191;SDS011;5652;48.406;10.820;2024-03-02T08:00:44;6.75;;;6.05;;
11191;SDS011;5652;48.406;10.820;2024-03-02T08:03:11;5.95;;;5.35;;
11191;SDS011;5652;48.406;10.820;2024-03-02T08:05:38;5.90;;;5.40;;
11191;SDS011;5652;48.406;10.820;2024-03-02T08:08:06;5.43;;;4.93;;
11191;SDS011;5652;48.406;10.820;2024-03-02T08:10:33;5.20;;;4.80;;
11191;SDS011;5652;48.406;10.820;2024-03-02T08:13:00;5.73;;;5.20;;
11191;SDS011;5652;48.406;10.820;2024-03-02T08:15:28;5.03;;;4.60;;
11191;SDS011;5652;48.406;10.820;2024-03-02T08:17:56;5.47;;;4.97;;
11191;SDS011;5652;48.406;10.820;2024-03-02T08:20:23;5.60;;;5.10;;
11191;SDS011;5652;48.406;10.820;2024-03-02T08:22:50;5.30;;;4.80;;
11191;SDS011;5652;48.406;10.820;2024-03-02T08:25:20;5.70;;;5.20;;
11191;SDS011;5652;48.406;10.820;2024-03-02T08:27:47;5.50;;;5.00;;
11191;SDS011;5652;48.406;10.820;2024-03-02T08:30:14;5.75;;;5.22;;
11191;SDS011;5652;48.406;10.820;2024-03-02T08:32:41;5.72;;;5.13;;
11191;SDS011;5652;48.406;10.820;2024-03-02T08:35:09;6.13;;;5.60;;
11191;SDS011;5652;48.406;10.820;2024-03-02T08:37:37;5.90;;;5.40;;
11191;SDS011;5652;48.406;10.820;2024-03-02T08:40:05;5.60;;;5.10;;
11191;SDS011;5652;48.406;10.820;2024-03-02T08:42:34;5.75;;;5.15;;
11191;SDS011;5652;48.406;10.820;2024-03-02T08:45:01;5.88;;;5.28;;
11191;SDS011;5652;48.406;10.820;2024-03-02T08:47:28;5.78;;;5.28;;
11191;SDS011;5652;48.406;10.820;2024-03-02T08:49:55;6.03;;;5.43;;
11191;SDS011;5652;48.406;10.820;2024-03-02T08:52:24;6.10;;;5.50;;
11191;SDS011;5652;48.406;10.820;2024-03-02T08:54:51;5.88;;;5.38;;
11191;SDS011;5652;48.406;10.820;2024-03-02T08:57:18;5.65;;;5.15;;
11191;SDS011;5652;48.406;10.820;2024-03-02T08:59:45;6.07;;;5.53;;
11191;SDS011;5652;48.406;10.820;2024-03-02T09:02:12;5.90;;;5.30;;
11191;SDS011;5652;48.406;10.820;2024-03-02T09:04:39;5.85;;;5.25;;
11191;SDS011;5652;48.406;10.820;2024-03-02T09:07:06;5.90;;;5.30;;
11191;SDS011;5652;48.406;10.820;2024-03-02T09:09:35;6.28;;;5.43;;
11191;SDS011;5652;48.406;10.820;2024-03-02T09:12:03;5.45;;;4.95;;
11191;SDS011;5652;48.406;10.820;2024-03-02T09:14:30;5.30;;;4.80;;
11191;SDS011;5652;48.406;10.820;2024-03-02T09:16:58;5.30;;;4.80;;
11191;SDS011;5652;48.406;10.820;2024-03-02T09:19:25;4.70;;;4.30;;
11191;SDS011;5652;48.406;10.820;2024-03-02T09:21:52;4.90;;;4.40;;
11191;SDS011;5652;48.406;10.820;2024-03-02T09:24:20;4.20;;;3.80;;
11191;SDS011;5652;48.406;10.820;2024-03-02T09:26:49;4.30;;;3.90;;
11191;SDS011;5652;48.406;10.820;2024-03-02T09:29:16;4.33;;;3.93;;
11191;SDS011;5652;48.406;10.820;2024-03-02T09:31:45;5.97;;;3.75;;
11191;SDS011;5652;48.406;10.820;2024-03-02T09:34:12;4.00;;;3.60;;
11191;SDS011;5652;48.406;10.820;2024-03-02T09:36:40;4.40;;;4.00;;
11191;SDS011;5652;48.406;10.820;2024-03-02T09:39:08;4.15;;;3.75;;
11191;SDS011;5652;48.406;10.820;2024-03-02T09:41:35;3.92;;;3.63;;
11191;SDS011;5652;48.406;10.820;2024-03-02T09:44:04;4.85;;;3.80;;
11191;SDS011;5652;48.406;10.820;2024-03-02T09:46:31;3.15;;;2.55;;
11191;SDS011;5652;48.406;10.820;2024-03-02T09:48:58;3.60;;;2.80;;
11191;SDS011;5652;48.406;10.820;2024-03-02T09:51:26;2.80;;;2.40;;
11191;SDS011;5652;48.406;10.820;2024-03-02T09:53:53;2.90;;;2.00;;
11191;SDS011;5652;48.406;10.820;2024-03-02T09:56:20;2.40;;;2.20;;
11191;SDS011;5652;48.406;10.820;2024-03-02T09:58:48;2.88;;;2.55;;
11191;SDS011;5652;48.406;10.820;2024-03-02T10:01:16;5.17;;;3.20;;
11191;SDS011;5652;48.406;10.820;2024-03-02T10:03:44;4.13;;;3.20;;
11191;SDS011;5652;48.406;10.820;2024-03-02T10:06:18;3.17;;;2.87;;
11191;SDS011;5652;48.406;10.820;2024-03-02T10:08:45;3.67;;;3.33;;
11191;SDS011;5652;48.406;10.820;2024-03-02T10:11:21;3.35;;;3.05;;
11191;SDS011;5652;48.406;10.820;2024-03-02T10:13:54;3.58;;;3.17;;
11191;SDS011;5652;48.406;10.820;2024-03-02T10:16:34;3.90;;;3.50;;
11191;SDS011;5652;48.406;10.820;2024-03-02T10:19:17;4.20;;;3.10;;
11191;SDS011;5652;48.406;10.820;2024-03-02T10:21:45;6.05;;;2.80;;
11191;SDS011;5652;48.406;10.820;2024-03-02T10:24:12;3.15;;;2.85;;
11191;SDS011;5652;48.406;10.820;2024-03-02T10:26:39;3.78;;;2.70;;
11191;SDS011;5652;48.406;10.820;2024-03-02T10:29:08;3.20;;;2.72;;
11191;SDS011;5652;48.406;10.820;2024-03-02T10:31:37;3.53;;;2.95;;
11191;SDS011;5652;48.406;10.820;2024-03-02T10:34:04;3.05;;;2.65;;
11191;SDS011;5652;48.406;10.820;2024-03-02T10:36:32;3.00;;;2.70;;
11191;SDS011;5652;48.406;10.820;2024-03-02T10:39:01;3.03;;;2.63;;
11191;SDS011;5652;48.406;10.820;2024-03-02T10:41:29;4.00;;;2.85;;
11191;SDS011;5652;48.406;10.820;2024-03-02T10:43:57;3.72;;;2.75;;
11191;SDS011;5652;48.406;10.820;2024-03-02T10:46:26;3.47;;;2.85;;
11191;SDS011;5652;48.406;10.820;2024-03-02T10:48:56;2.80;;;2.50;;
11191;SDS011;5652;48.406;10.820;2024-03-02T10:51:24;2.95;;;2.65;;
11191;SDS011;5652;48.406;10.820;2024-03-02T10:53:52;3.17;;;2.80;;
11191;SDS011;5652;48.406;10.820;2024-03-02T10:56:21;2.97;;;2.70;;
11191;SDS011;5652;48.406;10.820;2024-03-02T10:58:49;2.67;;;2.40;;
11191;SDS011;5652;48.406;10.820;2024-03-02T11:01:17;2.60;;;2.30;;
11191;SDS011;5652;48.406;10.820;2024-03-02T11:03:45;3.28;;;2.67;;
11191;SDS011;5652;48.406;10.820;2024-03-02T11:06:13;4.63;;;2.92;;
11191;SDS011;5652;48.406;10.820;2024-03-02T11:08:41;3.30;;;3.00;;
11191;SDS011;5652;48.406;10.820;2024-03-02T11:11:11;2.67;;;2.30;;
11191;SDS011;5652;48.406;10.820;2024-03-02T11:13:40;3.05;;;2.70;;
11191;SDS011;5652;48.406;10.820;2024-03-02T11:16:09;11.18;;;2.80;;
11191;SDS011;5652;48.406;10.820;2024-03-02T11:18:39;2.72;;;2.35;;
11191;SDS011;5652;48.406;10.820;2024-03-02T11:21:06;3.22;;;2.70;;
11191;SDS011;5652;48.406;10.820;2024-03-02T11:23:35;3.30;;;3.00;;
11191;SDS011;5652;48.406;10.820;2024-03-02T11:26:17;3.85;;;3.30;;
11191;SDS011;5652;48.406;10.820;2024-03-02T11:28:44;3.72;;;2.78;;
11191;SDS011;5652;48.406;10.820;2024-03-02T11:31:11;3.95;;;3.38;;
11191;SDS011;5652;48.406;10.820;2024-03-02T11:33:38;4.18;;;3.40;;
11191;SDS011;5652;48.406;10.820;2024-03-02T11:36:06;3.97;;;3.57;;
11191;SDS011;5652;48.406;10.820;2024-03-02T11:38:35;4.22;;;3.63;;
11191;SDS011;5652;48.406;10.820;2024-03-02T11:41:02;4.50;;;3.50;;
11191;SDS011;5652;48.406;10.820;2024-03-02T11:43:32;4.28;;;3.80;;
11191;SDS011;5652;48.406;10.820;2024-03-02T11:45:59;4.47;;;4.07;;
11191;SDS011;5652;48.406;10.820;2024-03-02T11:48:29;4.85;;;4.20;;
11191;SDS011;5652;48.406;10.820;2024-03-02T11:50:57;5.90;;;4.60;;
11191;SDS011;5652;48.406;10.820;2024-03-02T11:53:25;4.43;;;3.95;;
11191;SDS011;5652;48.406;10.820;2024-03-02T11:55:55;4.80;;;4.30;;
11191;SDS011;5652;48.406;10.820;2024-03-02T11:58:22;5.65;;;4.40;;
11191;SDS011;5652;48.406;10.820;2024-03-02T12:00:51;4.50;;;3.92;;
11191;SDS011;5652;48.406;10.820;2024-03-02T12:03:20;5.10;;;4.40;;
11191;SDS011;5652;48.406;10.820;2024-03-02T12:05:48;4.57;;;4.10;;
11191;SDS011;5652;48.406;10.820;2024-03-02T12:08:16;4.82;;;4.32;;
11191;SDS011;5652;48.406;10.820;2024-03-02T12:10:43;5.22;;;4.72;;
11191;SDS011;5652;48.406;10.820;2024-03-02T12:13:23;6.10;;;4.85;;
11191;SDS011;5652;48.406;10.820;2024-03-02T12:15:52;5.13;;;4.47;;
11191;SDS011;5652;48.406;10.820;2024-03-02T12:18:20;5.47;;;4.47;;
11191;SDS011;5652;48.406;10.820;2024-03-02T12:20:48;5.10;;;4.60;;
11191;SDS011;5652;48.406;10.820;2024-03-02T12:23:17;10.07;;;5.13;;
11191;SDS011;5652;48.406;10.820;2024-03-02T12:25:44;7.00;;;5.30;;
11191;SDS011;5652;48.406;10.820;2024-03-02T12:28:12;6.00;;;5.35;;
11191;SDS011;5652;48.406;10.820;2024-03-02T12:30:40;8.27;;;5.60;;
11191;SDS011;5652;48.406;10.820;2024-03-02T12:33:07;6.68;;;5.97;;
11191;SDS011;5652;48.406;10.820;2024-03-02T12:35:35;6.25;;;5.57;;
11191;SDS011;5652;48.406;10.820;2024-03-02T12:38:03;6.97;;;6.00;;
11191;SDS011;5652;48.406;10.820;2024-03-02T12:40:30;8.23;;;6.80;;
11191;SDS011;5652;48.406;10.820;2024-03-02T12:42:58;7.88;;;6.78;;
11191;SDS011;5652;48.406;10.820;2024-03-02T12:45:25;7.72;;;6.65;;
11191;SDS011;5652;48.406;10.820;2024-03-02T12:47:53;9.00;;;7.70;;
11191;SDS011;5652;48.406;10.820;2024-03-02T12:50:21;8.05;;;6.60;;
11191;SDS011;5652;48.406;10.820;2024-03-02T12:52:51;10.63;;;8.45;;
11191;SDS011;5652;48.406;10.820;2024-03-02T12:55:19;10.25;;;8.75;;
11191;SDS011;5652;48.406;10.820;2024-03-02T12:57:47;12.25;;;9.43;;
11191;SDS011;5652;48.406;10.820;2024-03-02T13:00:14;10.52;;;8.85;;
11191;SDS011;5652;48.406;10.820;2024-03-02T13:02:41;11.65;;;9.27;;
11191;SDS011;5652;48.406;10.820;2024-03-02T13:05:10;11.40;;;9.25;;
11191;SDS011;5652;48.406;10.820;2024-03-02T13:07:38;11.00;;;9.05;;
11191;SDS011;5652;48.406;10.820;2024-03-02T13:10:06;9.88;;;7.95;;
11191;SDS011;5652;48.406;10.820;2024-03-02T13:12:34;10.20;;;8.30;;
11191;SDS011;5652;48.406;10.820;2024-03-02T13:15:02;10.80;;;9.05;;
11191;SDS011;5652;48.406;10.820;2024-03-02T13:17:30;10.45;;;8.60;;
11191;SDS011;5652;48.406;10.820;2024-03-02T13:19:59;10.60;;;9.20;;
11191;SDS011;5652;48.406;10.820;2024-03-02T13:22:28;10.55;;;8.23;;
11191;SDS011;5652;48.406;10.820;2024-03-02T13:24:55;10.88;;;8.57;;
11191;SDS011;5652;48.406;10.820;2024-03-02T13:27:22;10.00;;;7.93;;
11191;SDS011;5652;48.406;10.820;2024-03-02T13:29:49;9.55;;;7.93;;
11191;SDS011;5652;48.406;10.820;2024-03-02T13:32:17;10.95;;;8.55;;
11191;SDS011;5652;48.406;10.820;2024-03-02T13:34:48;11.88;;;8.73;;
11191;SDS011;5652;48.406;10.820;2024-03-02T13:37:15;10.68;;;8.63;;
11191;SDS011;5652;48.406;10.820;2024-03-02T13:39:44;10.35;;;8.93;;
11191;SDS011;5652;48.406;10.820;2024-03-02T13:42:11;10.30;;;8.48;;
11191;SDS011;5652;48.406;10.820;2024-03-02T13:44:40;10.70;;;9.00;;
11191;SDS011;5652;48.406;10.820;2024-03-02T13:47:07;10.10;;;8.60;;
11191;SDS011;5652;48.406;10.820;2024-03-02T13:49:34;11.18;;;8.90;;
11191;SDS011;5652;48.406;10.820;2024-03-02T13:52:03;11.57;;;8.80;;
11191;SDS011;5652;48.406;10.820;2024-03-02T13:54:36;10.88;;;9.32;;
11191;SDS011;5652;48.406;10.820;2024-03-02T13:57:05;12.35;;;9.18;;
11191;SDS011;5652;48.406;10.820;2024-03-02T13:59:33;11.07;;;9.23;;
11191;SDS011;5652;48.406;10.820;2024-03-02T14:02:00;11.10;;;9.57;;
11191;SDS011;5652;48.406;10.820;2024-03-02T14:04:29;11.18;;;9.07;;
11191;SDS011;5652;48.406;10.820;2024-03-02T14:06:56;11.35;;;9.77;;
11191;SDS011;5652;48.406;10.820;2024-03-02T14:09:23;12.25;;;9.45;;
11191;SDS011;5652;48.406;10.820;2024-03-02T14:11:50;12.63;;;10.10;;
11191;SDS011;5652;48.406;10.820;2024-03-02T14:14:19;12.00;;;9.50;;
11191;SDS011;5652;48.406;10.820;2024-03-02T14:16:46;12.73;;;10.25;;
11191;SDS011;5652;48.406;10.820;2024-03-02T14:19:13;13.32;;;10.90;;
11191;SDS011;5652;48.406;10.820;2024-03-02T14:21:40;12.77;;;10.10;;
11191;SDS011;5652;48.406;10.820;2024-03-02T14:24:07;12.17;;;10.17;;
11191;SDS011;5652;48.406;10.820;2024-03-02T14:26:35;12.88;;;9.57;;
11191;SDS011;5652;48.406;10.820;2024-03-02T14:29:02;11.03;;;9.50;;
11191;SDS011;5652;48.406;10.820;2024-03-02T14:31:31;12.38;;;9.60;;
11191;SDS011;5652;48.406;10.820;2024-03-02T14:33:58;11.07;;;8.95;;
11191;SDS011;5652;48.406;10.820;2024-03-02T14:36:25;10.63;;;8.17;;
11191;SDS011;5652;48.406;10.820;2024-03-02T14:38:53;12.18;;;9.35;;
11191;SDS011;5652;48.406;10.820;2024-03-02T14:41:20;10.80;;;8.95;;
11191;SDS011;5652;48.406;10.820;2024-03-02T14:43:49;12.32;;;8.60;;
11191;SDS011;5652;48.406;10.820;2024-03-02T14:46:16;9.95;;;8.30;;